Time;durP1;ratioP1;P1;durP2;ratioP2;P2;SDS_P1;SDS_P2;PMS_P1;PMS_P2;Temp;Humidity;BMP_temperature;BMP_pressure;BME280_temperature;BME280_humidity;BME280_pressure;Samples;Min_cycle;Max_cycle;Signal;HPM_P1;HPM_P2
2022/05/09 00:01:57;;;;;;;8.82;6.00;;;;;;;;;;6245325;23;20019;-79
2022/05/09 00:04:23;;;;;;;6.75;4.63;;;;;;;;;;6245337;23;20007;-79
2022/05/09 00:06:50;;;;;;;10.85;5.20;;;;;;;;;;6245030;23;19996;-79
2022/05/09 00:09:17;;;;;;;8.98;5.47;;;;;;;;;;6245332;23;20440;-79
2022/05/09 00:11:43;;;;;;;9.23;5.35;;;;;;;;;;6245032;23;19996;-81
2022/05/09 00:14:09;;;;;;;10.38;6.15;;;;;;;;;;6245301;23;20000;-79
2022/05/09 00:16:35;;;;;;;10.27;5.20;;;;;;;;;;6245096;23;20340;-79
2022/05/09 00:19:05;;;;;;;11.57;5.70;;;;;;;;;;6245238;23;20075;-79
2022/05/09 00:21:33;;;;;;;9.32;5.07;;;;;;;;;;6244923;23;20012;-79
2022/05/09 00:24:02;;;;;;;6.78;5.28;;;;;;;;;;6245277;23;20082;-79
2022/05/09 00:26:31;;;;;;;6.47;5.03;;;;;;;;;;6218275;23;20007;-79
2022/05/09 00:29:02;;;;;;;8.60;5.13;;;;;;;;;;6245239;23;20130;-81
2022/05/09 00:31:28;;;;;;;7.57;5.93;;;;;;;;;;6245118;23;20062;-80
2022/05/09 00:33:55;;;;;;;8.35;5.22;;;;;;;;;;6245119;23;20006;-80
2022/05/09 00:36:21;;;;;;;6.68;5.13;;;;;;;;;;6245175;23;20000;-79
2022/05/09 00:38:47;;;;;;;8.68;5.50;;;;;;;;;;6244985;23;19996;-80
2022/05/09 00:41:31;;;;;;;9.85;5.40;;;;;;;;;;6245072;23;20001;-81
2022/05/09 00:43:57;;;;;;;5.97;4.20;;;;;;;;;;6245254;23;20003;-79
2022/05/09 00:46:24;;;;;;;8.60;5.15;;;;;;;;;;6244774;23;20004;-80
2022/05/09 00:48:50;;;;;;;8.80;5.05;;;;;;;;;;6245111;23;20340;-80
2022/05/09 00:51:27;;;;;;;9.80;5.05;;;;;;;;;;6245059;23;20011;-80
2022/05/09 00:53:55;;;;;;;6.95;4.53;;;;;;;;;;6245695;23;20020;-80
2022/05/09 00:56:24;;;;;;;7.72;4.85;;;;;;;;;;6244687;23;20016;-79
2022/05/09 00:58:54;;;;;;;7.82;4.78;;;;;;;;;;6244987;23;20000;-79
2022/05/09 01:01:21;;;;;;;8.27;5.13;;;;;;;;;;6245081;23;20019;-79
2022/05/09 01:03:52;;;;;;;6.78;5.00;;;;;;;;;;6244970;23;20305;-79
2022/05/09 01:06:18;;;;;;;7.65;4.35;;;;;;;;;;6217976;23;20012;-80
2022/05/09 01:08:44;;;;;;;5.40;3.92;;;;;;;;;;6218083;23;20028;-78
2022/05/09 01:11:12;;;;;;;6.28;4.40;;;;;;;;;;6244800;23;20027;-79
2022/05/09 01:13:43;;;;;;;6.18;4.53;;;;;;;;;;6244905;23;20000;-80
2022/05/09 01:16:10;;;;;;;5.53;3.85;;;;;;;;;;6244789;23;20000;-81
2022/05/09 01:18:37;;;;;;;6.22;3.95;;;;;;;;;;6218076;23;20012;-80
2022/05/09 01:21:23;;;;;;;7.10;4.25;;;;;;;;;;6244611;23;20001;-81
2022/05/09 01:23:49;;;;;;;5.50;4.57;;;;;;;;;;6243504;23;20492;-80
2022/05/09 01:26:15;;;;;;;7.60;4.35;;;;;;;;;;6245041;23;20067;-81
2022/05/09 01:28:42;;;;;;;6.13;3.92;;;;;;;;;;6244996;23;20091;-80
2022/05/09 01:31:11;;;;;;;6.63;4.38;;;;;;;;;;6244807;23;20034;-81
2022/05/09 01:33:39;;;;;;;8.95;5.18;;;;;;;;;;6244913;23;20078;-79
2022/05/09 01:36:24;;;;;;;8.35;4.50;;;;;;;;;;6244758;23;20000;-80
2022/05/09 01:38:50;;;;;;;;;;;;;;;;;;6246151;23;20000;-80
2022/05/09 01:41:16;;;;;;;9.52;5.30;;;;;;;;;;6246751;23;19904;-80
2022/05/09 01:43:44;;;;;;;7.38;4.85;;;;;;;;;;6246598;23;19996;-80
2022/05/09 01:46:12;;;;;;;10.75;5.05;;;;;;;;;;6246839;23;20008;-79
2022/05/09 01:51:23;;;;;;;6.50;4.78;;;;;;;;;;6246508;23;20043;-80
2022/05/09 01:53:52;;;;;;;8.60;5.07;;;;;;;;;;6247060;23;20008;-79
2022/05/09 01:56:24;;;;;;;6.90;4.72;;;;;;;;;;6246090;23;20047;-80
2022/05/09 01:58:50;;;;;;;6.05;4.05;;;;;;;;;;6246616;23;20004;-80
2022/05/09 02:01:17;;;;;;;8.23;4.88;;;;;;;;;;6246289;23;20054;-80
2022/05/09 02:03:45;;;;;;;6.47;4.53;;;;;;;;;;6246618;23;20000;-81
2022/05/09 02:06:11;;;;;;;6.85;4.50;;;;;;;;;;6246858;23;20075;-81
2022/05/09 02:08:38;;;;;;;5.90;4.50;;;;;;;;;;6246516;23;20432;-80
2022/05/09 02:11:05;;;;;;;7.22;4.78;;;;;;;;;;6246585;23;20432;-80
2022/05/09 02:13:31;;;;;;;5.07;4.43;;;;;;;;;;6246348;23;20107;-79
2022/05/09 02:15:58;;;;;;;6.80;4.57;;;;;;;;;;6246468;23;20011;-80
2022/05/09 02:18:24;;;;;;;7.07;4.20;;;;;;;;;;6246169;23;20051;-80
2022/05/09 02:20:51;;;;;;;6.28;4.30;;;;;;;;;;6246179;23;20028;-80
2022/05/09 02:23:17;;;;;;;8.63;4.15;;;;;;;;;;6246319;23;20071;-80
2022/05/09 02:25:45;;;;;;;6.10;4.18;;;;;;;;;;6246438;23;20075;-81
2022/05/09 02:28:12;;;;;;;7.72;4.35;;;;;;;;;;6219832;23;20328;-79
2022/05/09 02:30:38;;;;;;;6.57;4.32;;;;;;;;;;6246243;23;20015;-80
2022/05/09 02:33:05;;;;;;;7.07;5.50;;;;;;;;;;6246279;23;20011;-80
2022/05/09 02:35:32;;;;;;;8.10;4.80;;;;;;;;;;6246048;23;20000;-79
2022/05/09 02:37:58;;;;;;;9.60;4.55;;;;;;;;;;6246322;23;20076;-80
2022/05/09 02:40:24;;;;;;;5.25;3.80;;;;;;;;;;6245890;23;20031;-81
2022/05/09 02:42:52;;;;;;;5.30;3.95;;;;;;;;;;6246228;23;20038;-80
2022/05/09 02:45:19;;;;;;;8.57;5.47;;;;;;;;;;6246040;23;20012;-81
2022/05/09 02:47:45;;;;;;;6.65;4.78;;;;;;;;;;6246217;23;20332;-80
2022/05/09 02:50:12;;;;;;;8.18;4.68;;;;;;;;;;6245558;23;20004;-80
2022/05/09 02:52:38;;;;;;;7.00;4.43;;;;;;;;;;6246023;23;20408;-80
2022/05/09 02:55:05;;;;;;;6.97;4.10;;;;;;;;;;6245879;23;20352;-79
2022/05/09 02:57:31;;;;;;;10.90;4.88;;;;;;;;;;6245865;23;20004;-80
2022/05/09 02:59:57;;;;;;;6.45;4.43;;;;;;;;;;6245971;23;20088;-80
2022/05/09 03:02:25;;;;;;;5.50;3.78;;;;;;;;;;6245793;23;20004;-79
2022/05/09 03:04:51;;;;;;;6.68;4.22;;;;;;;;;;6245995;23;20001;-80
2022/05/09 03:07:18;;;;;;;6.43;4.07;;;;;;;;;;6246495;23;20067;-80
2022/05/09 03:09:47;;;;;;;7.13;4.30;;;;;;;;;;6245844;23;20000;-81
2022/05/09 03:12:13;;;;;;;10.00;4.55;;;;;;;;;;6246016;23;20000;-79
2022/05/09 03:14:39;;;;;;;7.25;4.38;;;;;;;;;;6219041;23;20019;-81
2022/05/09 03:17:07;;;;;;;5.20;4.07;;;;;;;;;;6245961;23;20016;-80
2022/05/09 03:19:33;;;;;;;8.23;4.50;;;;;;;;;;6245658;23;20003;-79
2022/05/09 03:21:59;;;;;;;7.00;4.40;;;;;;;;;;6245797;23;20067;-80
2022/05/09 03:24:26;;;;;;;10.95;5.40;;;;;;;;;;6245643;23;20054;-81
2022/05/09 03:26:52;;;;;;;9.65;4.50;;;;;;;;;;6245697;23;20007;-80
2022/05/09 03:29:19;;;;;;;9.18;4.78;;;;;;;;;;6245834;23;20034;-80
2022/05/09 03:31:46;;;;;;;6.93;4.72;;;;;;;;;;6245633;23;19996;-80
2022/05/09 03:34:12;;;;;;;6.80;4.47;;;;;;;;;;6245748;23;20003;-80
2022/05/09 03:36:39;;;;;;;6.75;4.35;;;;;;;;;;6245432;23;20000;-80
2022/05/09 03:39:05;;;;;;;7.28;5.03;;;;;;;;;;6245673;23;20067;-81
2022/05/09 03:41:31;;;;;;;7.35;4.70;;;;;;;;;;6245327;23;20000;-81
2022/05/09 03:43:57;;;;;;;13.80;5.50;;;;;;;;;;6245544;23;20004;-81
2022/05/09 03:46:23;;;;;;;9.43;4.95;;;;;;;;;;6245682;23;20000;-80
2022/05/09 03:48:50;;;;;;;13.80;5.45;;;;;;;;;;6245410;23;20000;-81
2022/05/09 03:51:16;;;;;;;7.03;4.78;;;;;;;;;;6245596;23;19996;-80
2022/05/09 03:53:42;;;;;;;8.23;4.78;;;;;;;;;;6245746;23;20004;-79
2022/05/09 03:56:08;;;;;;;7.03;4.80;;;;;;;;;;6245326;23;20020;-79
2022/05/09 03:58:34;;;;;;;9.43;6.20;;;;;;;;;;6245219;23;20071;-82
2022/05/09 04:01:00;;;;;;;9.40;5.45;;;;;;;;;;6245156;23;20046;-80
2022/05/09 04:03:27;;;;;;;9.18;5.22;;;;;;;;;;6245389;23;20000;-82
2022/05/09 04:05:53;;;;;;;9.60;4.85;;;;;;;;;;6244916;23;20000;-79
2022/05/09 04:08:23;;;;;;;9.55;5.55;;;;;;;;;;6245289;23;20332;-81
2022/05/09 04:10:50;;;;;;;7.43;4.47;;;;;;;;;;6245077;23;20071;-79
2022/05/09 04:13:16;;;;;;;5.70;4.50;;;;;;;;;;6245090;23;20086;-80
2022/05/09 04:18:29;;;;;;;6.43;4.80;;;;;;;;;;6245122;23;20331;-80
2022/05/09 04:20:55;;;;;;;7.75;5.13;;;;;;;;;;6218596;23;20008;-80
2022/05/09 04:23:22;;;;;;;6.75;4.45;;;;;;;;;;6244320;23;20040;-79
2022/05/09 04:25:49;;;;;;;8.60;5.80;;;;;;;;;;6218350;23;20012;-80
2022/05/09 04:28:17;;;;;;;9.25;5.22;;;;;;;;;;6218446;23;20008;-79
2022/05/09 04:30:43;;;;;;;7.85;4.53;;;;;;;;;;6244971;23;20118;-80
2022/05/09 04:33:10;;;;;;;6.63;4.05;;;;;;;;;;6218395;23;20011;-80
2022/05/09 04:35:38;;;;;;;6.53;4.30;;;;;;;;;;6218078;23;20316;-79
2022/05/09 04:38:05;;;;;;;6.57;4.38;;;;;;;;;;6244886;23;20079;-80
2022/05/09 04:40:32;;;;;;;5.93;4.43;;;;;;;;;;6244606;23;20420;-81
2022/05/09 04:42:59;;;;;;;6.55;4.60;;;;;;;;;;6244601;23;20008;-80
2022/05/09 04:45:42;;;;;;;10.55;4.88;;;;;;;;;;6244270;23;20004;-80
2022/05/09 04:48:08;;;;;;;8.20;4.75;;;;;;;;;;6244679;23;20062;-80
2022/05/09 04:50:34;;;;;;;10.52;6.43;;;;;;;;;;6245031;23;20000;-79
2022/05/09 04:53:01;;;;;;;10.55;6.63;;;;;;;;;;6244428;23;20014;-79
2022/05/09 04:55:27;;;;;;;17.92;7.35;;;;;;;;;;6244809;23;20365;-80
2022/05/09 04:57:54;;;;;;;11.13;6.60;;;;;;;;;;6218093;23;20079;-79
2022/05/09 05:00:21;;;;;;;9.32;6.25;;;;;;;;;;6244731;23;20004;-80
2022/05/09 05:02:48;;;;;;;9.95;5.88;;;;;;;;;;6244989;23;20000;-79
2022/05/09 05:05:14;;;;;;;9.40;5.60;;;;;;;;;;6244868;23;20000;-80
2022/05/09 05:07:40;;;;;;;9.20;5.85;;;;;;;;;;6245074;23;20003;-79
2022/05/09 05:10:07;;;;;;;10.80;7.07;;;;;;;;;;6244840;23;20002;-79
2022/05/09 05:12:33;;;;;;;17.67;10.95;;;;;;;;;;6244185;23;19992;-80
2022/05/09 05:15:00;;;;;;;15.23;9.43;;;;;;;;;;6246777;23;20023;-80
2022/05/09 05:17:26;;;;;;;11.73;7.55;;;;;;;;;;6246213;23;20004;-79
2022/05/09 05:19:52;;;;;;;15.40;7.97;;;;;;;;;;6245563;23;20000;-81
2022/05/09 05:22:18;;;;;;;11.32;8.07;;;;;;;;;;6245983;23;20146;-79
2022/05/09 05:24:45;;;;;;;12.27;6.78;;;;;;;;;;6246294;23;19996;-79
2022/05/09 05:27:12;;;;;;;11.93;7.43;;;;;;;;;;6246767;23;20000;-79
2022/05/09 05:29:38;;;;;;;35.05;10.55;;;;;;;;;;6246456;23;20015;-79
2022/05/09 05:32:23;;;;;;;14.38;7.63;;;;;;;;;;6245172;23;20000;-79
2022/05/09 05:34:49;;;;;;;;;;;;;;;;;;6246231;23;20004;-81
2022/05/09 05:37:16;;;;;;;11.93;6.25;;;;;;;;;;6218573;23;19910;-82
2022/05/09 05:39:46;;;;;;;6.85;5.28;;;;;;;;;;6245768;23;20340;-80
2022/05/09 05:42:14;;;;;;;9.75;6.35;;;;;;;;;;6245792;23;20087;-81
2022/05/09 05:44:41;;;;;;;11.55;6.50;;;;;;;;;;6245890;23;20024;-81
2022/05/09 05:47:09;;;;;;;12.65;6.20;;;;;;;;;;6245296;23;20000;-80
2022/05/09 05:49:36;;;;;;;9.35;6.07;;;;;;;;;;6246200;23;20082;-81
2022/05/09 05:52:04;;;;;;;10.30;5.72;;;;;;;;;;6244581;22;20693;-79
2022/05/09 05:54:31;;;;;;;10.63;5.50;;;;;;;;;;6245621;23;20022;-80
2022/05/09 05:56:58;;;;;;;9.57;6.10;;;;;;;;;;6245727;23;20004;-80
2022/05/09 05:59:25;;;;;;;13.13;6.10;;;;;;;;;;6245852;23;20000;-81
2022/05/09 06:01:52;;;;;;;12.90;6.47;;;;;;;;;;6246272;23;20008;-81
2022/05/09 06:04:18;;;;;;;10.60;6.95;;;;;;;;;;6245914;23;20004;-80
2022/05/09 06:06:44;;;;;;;11.23;8.40;;;;;;;;;;6214341;23;20502;-80
2022/05/09 06:09:12;;;;;;;12.98;8.25;;;;;;;;;;6244689;23;20004;-79
2022/05/09 06:11:39;;;;;;;17.73;10.43;;;;;;;;;;6244987;23;20114;-72
2022/05/09 06:14:07;;;;;;;13.77;9.43;;;;;;;;;;6244972;23;20000;-81
2022/05/09 06:16:33;;;;;;;15.35;8.32;;;;;;;;;;6244239;23;20332;-79
2022/05/09 06:19:00;;;;;;;15.07;8.35;;;;;;;;;;6244520;23;20004;-82
2022/05/09 06:21:27;;;;;;;14.20;8.05;;;;;;;;;;6243875;23;20087;-81
2022/05/09 06:23:53;;;;;;;14.98;9.63;;;;;;;;;;6244122;23;20005;-81
2022/05/09 06:26:22;;;;;;;13.07;8.98;;;;;;;;;;6244405;23;20014;-83
2022/05/09 06:28:48;;;;;;;14.00;7.28;;;;;;;;;;6244725;23;20420;-80
2022/05/09 06:31:14;;;;;;;9.00;5.97;;;;;;;;;;6243821;23;20436;-81
2022/05/09 06:33:40;;;;;;;13.50;6.70;;;;;;;;;;6243513;23;20004;-82
2022/05/09 06:36:07;;;;;;;10.75;6.00;;;;;;;;;;6243803;23;19997;-81
2022/05/09 06:38:34;;;;;;;9.82;5.68;;;;;;;;;;6244039;23;20004;-80
2022/05/09 06:41:03;;;;;;;22.10;9.77;;;;;;;;;;6244312;23;20008;-78
2022/05/09 06:43:30;;;;;;;63.90;24.58;;;;;;;;;;6243161;23;20008;-80
2022/05/09 06:45:56;;;;;;;124.28;45.00;;;;;;;;;;6244134;23;20004;-77
2022/05/09 06:48:23;;;;;;;184.00;68.32;;;;;;;;;;6243643;23;20367;-78
2022/05/09 06:50:49;;;;;;;181.55;67.90;;;;;;;;;;6244055;23;20046;-79
2022/05/09 06:53:15;;;;;;;123.07;44.67;;;;;;;;;;6244055;23;20027;-81
2022/05/09 06:55:41;;;;;;;96.00;36.03;;;;;;;;;;6244235;23;20432;-80
2022/05/09 06:58:08;;;;;;;56.40;22.00;;;;;;;;;;6243951;23;20024;-81
2022/05/09 07:00:35;;;;;;;36.08;14.70;;;;;;;;;;6244147;23;20008;-82
2022/05/09 07:03:01;;;;;;;75.28;29.15;;;;;;;;;;6244440;23;20004;-80
2022/05/09 07:05:28;;;;;;;106.70;39.22;;;;;;;;;;6243622;23;20000;-82
2022/05/09 07:07:54;;;;;;;105.07;39.42;;;;;;;;;;6244016;23;20424;-81
2022/05/09 07:10:20;;;;;;;153.85;55.03;;;;;;;;;;6244080;23;20432;-82
2022/05/09 07:12:48;;;;;;;72.68;28.58;;;;;;;;;;6243881;23;20004;-80
2022/05/09 07:15:15;;;;;;;91.65;32.90;;;;;;;;;;6243437;23;20000;-82
2022/05/09 07:17:42;;;;;;;76.93;28.35;;;;;;;;;;6243729;23;20027;-81
2022/05/09 07:20:08;;;;;;;87.63;32.60;;;;;;;;;;6243478;23;20010;-81
2022/05/09 07:22:35;;;;;;;77.78;31.02;;;;;;;;;;6244106;23;20003;-81
2022/05/09 07:25:02;;;;;;;83.13;30.95;;;;;;;;;;6243584;23;20023;-84
2022/05/09 07:27:41;;;;;;;;;;;;;;;;;;;;;
2022/05/09 07:30:08;;;;;;;56.25;23.40;;;;;;;;;;6243861;23;20087;-81
2022/05/09 07:32:41;;;;;;;54.60;21.70;;;;;;;;;;6243810;23;20015;-82
2022/05/09 07:35:08;;;;;;;43.50;16.45;;;;;;;;;;6243552;23;20067;-79
2022/05/09 07:37:35;;;;;;;35.85;15.25;;;;;;;;;;6243001;23;19997;-81
2022/05/09 07:40:01;;;;;;;30.58;13.93;;;;;;;;;;6243502;23;20439;-81
2022/05/09 07:42:27;;;;;;;32.05;13.40;;;;;;;;;;6243122;23;20560;-84
2022/05/09 07:44:56;;;;;;;26.88;10.20;;;;;;;;;;6243925;23;20072;-82
2022/05/09 07:47:23;;;;;;;18.55;8.70;;;;;;;;;;6243399;23;20042;-83
2022/05/09 07:49:49;;;;;;;22.35;9.38;;;;;;;;;;6243309;23;20008;-83
2022/05/09 07:52:16;;;;;;;20.35;9.68;;;;;;;;;;6243264;23;20067;-82
2022/05/09 07:54:43;;;;;;;18.65;9.88;;;;;;;;;;6243178;23;20008;-82
2022/05/09 07:57:17;;;;;;;18.65;8.32;;;;;;;;;;6216749;23;20070;-86
2022/05/09 07:59:43;;;;;;;20.63;9.00;;;;;;;;;;6243390;23;20031;-78
2022/05/09 08:02:12;;;;;;;17.63;8.93;;;;;;;;;;6242363;23;20087;-81
2022/05/09 08:04:38;;;;;;;17.65;7.13;;;;;;;;;;6215715;23;20060;-82
2022/05/09 08:07:04;;;;;;;17.55;8.05;;;;;;;;;;6242331;23;20000;-81
2022/05/09 08:09:31;;;;;;;14.85;7.53;;;;;;;;;;6243382;23;20431;-83
2022/05/09 08:12:00;;;;;;;14.55;6.70;;;;;;;;;;6243053;23;20439;-80
2022/05/09 08:14:30;;;;;;;11.32;5.68;;;;;;;;;;6243499;23;20007;-83
2022/05/09 08:16:56;;;;;;;12.68;6.38;;;;;;;;;;6243047;23;20033;-81
2022/05/09 08:19:23;;;;;;;13.32;6.82;;;;;;;;;;6243392;23;20004;-80
2022/05/09 08:21:52;;;;;;;18.90;7.35;;;;;;;;;;6243049;23;20026;-81
2022/05/09 08:24:18;;;;;;;11.52;5.10;;;;;;;;;;6216606;23;20016;-81
2022/05/09 08:26:45;;;;;;;10.15;4.88;;;;;;;;;;6242696;23;20000;-81
2022/05/09 08:29:11;;;;;;;10.93;4.85;;;;;;;;;;6243312;23;20324;-82
2022/05/09 08:31:37;;;;;;;12.07;4.47;;;;;;;;;;6243520;23;20040;-80
2022/05/09 08:34:03;;;;;;;12.55;5.03;;;;;;;;;;6243316;23;20332;-79
2022/05/09 08:39:15;;;;;;;10.70;4.78;;;;;;;;;;6243398;23;20023;-81
2022/05/09 08:41:54;;;;;;;6.60;4.32;;;;;;;;;;6243141;23;20012;-80
2022/05/09 08:44:23;;;;;;;9.80;3.53;;;;;;;;;;6243612;23;20000;-82
2022/05/09 08:47:01;;;;;;;11.32;3.80;;;;;;;;;;6243020;23;19996;-78
2022/05/09 08:49:27;;;;;;;11.30;3.70;;;;;;;;;;6245206;23;20000;-79
2022/05/09 08:52:12;;;;;;;5.25;3.20;;;;;;;;;;6245075;23;20328;-79
2022/05/09 08:54:38;;;;;;;10.38;3.55;;;;;;;;;;6245156;23;20008;-80
2022/05/09 08:57:08;;;;;;;8.45;3.20;;;;;;;;;;6218184;23;20091;-78
2022/05/09 08:59:40;;;;;;;7.93;3.80;;;;;;;;;;6245092;23;20055;-78
2022/05/09 09:02:25;;;;;;;5.63;3.72;;;;;;;;;;6244045;23;20169;-79
2022/05/09 09:04:55;;;;;;;6.28;2.55;;;;;;;;;;6245290;23;20058;-79
2022/05/09 09:07:28;;;;;;;5.97;3.53;;;;;;;;;;6245196;23;20390;-80
2022/05/09 09:10:10;;;;;;;6.68;3.95;;;;;;;;;;6244395;23;20459;-80
2022/05/09 09:12:49;;;;;;;9.15;2.88;;;;;;;;;;6245333;23;19999;-82
2022/05/09 09:15:18;;;;;;;7.78;3.53;;;;;;;;;;6245222;23;20001;-83
2022/05/09 09:17:51;;;;;;;5.65;3.00;;;;;;;;;;6244817;23;20432;-80
2022/05/09 09:20:36;;;;;;;7.03;3.65;;;;;;;;;;6245470;23;20004;-80
2022/05/09 09:23:14;;;;;;;6.10;3.80;;;;;;;;;;6244921;23;20038;-79
2022/05/09 09:25:59;;;;;;;6.60;3.05;;;;;;;;;;6246203;23;20027;-81
2022/05/09 09:28:47;;;;;;;4.93;2.63;;;;;;;;;;6245891;23;20057;-80
2022/05/09 09:31:14;;;;;;;6.32;3.33;;;;;;;;;;6244859;23;20340;-81
2022/05/09 09:33:44;;;;;;;4.38;1.90;;;;;;;;;;6245123;23;20383;-80
2022/05/09 09:36:15;;;;;;;4.35;2.63;;;;;;;;;;6244876;23;20000;-80
2022/05/09 09:38:41;;;;;;;6.63;3.33;;;;;;;;;;6244915;23;20000;-80
2022/05/09 09:41:27;;;;;;;7.40;3.22;;;;;;;;;;6244560;23;20031;-79
2022/05/09 09:43:58;;;;;;;7.78;3.03;;;;;;;;;;6244394;23;20137;-80
2022/05/09 09:46:24;;;;;;;6.07;3.47;;;;;;;;;;6217700;23;20004;-80
2022/05/09 09:49:02;;;;;;;6.20;2.75;;;;;;;;;;6245062;23;20000;-80
2022/05/09 09:51:33;;;;;;;5.63;2.83;;;;;;;;;;6217303;23;20012;-81
2022/05/09 09:54:01;;;;;;;19.42;6.07;;;;;;;;;;6217711;23;20008;-79
2022/05/09 09:56:29;;;;;;;134.75;42.55;;;;;;;;;;6244723;23;20073;-80
2022/05/09 09:59:13;;;;;;;22.80;8.05;;;;;;;;;;6217393;23;20003;-81
2022/05/09 10:01:40;;;;;;;5.72;2.88;;;;;;;;;;6244773;23;20061;-79
2022/05/09 10:04:25;;;;;;;6.15;2.83;;;;;;;;;;6242468;23;20034;-82
2022/05/09 10:07:12;;;;;;;4.93;2.58;;;;;;;;;;6244717;23;20453;-80
2022/05/09 10:09:40;;;;;;;8.30;3.42;;;;;;;;;;6244810;23;20008;-80
2022/05/09 10:12:28;;;;;;;5.60;2.40;;;;;;;;;;6244088;23;20004;-80
2022/05/09 10:14:55;;;;;;;5.65;2.25;;;;;;;;;;6217738;23;20012;-77
2022/05/09 10:17:35;;;;;;;5.60;2.20;;;;;;;;;;6244074;23;20011;-82
2022/05/09 10:20:27;;;;;;;4.88;2.03;;;;;;;;;;6218004;23;20004;-80
2022/05/09 10:25:56;;;;;;;5.35;2.13;;;;;;;;;;6243236;23;20022;-80
2022/05/09 10:28:23;;;;;;;5.80;2.22;;;;;;;;;;6242506;23;20022;-80
2022/05/09 10:30:50;;;;;;;6.55;2.38;;;;;;;;;;6243614;23;20012;-80
2022/05/09 10:33:20;;;;;;;3.92;2.35;;;;;;;;;;6243979;23;20000;-79
2022/05/09 10:35:54;;;;;;;3.60;2.33;;;;;;;;;;6244015;23;20000;-77
2022/05/09 10:38:27;;;;;;;4.60;2.47;;;;;;;;;;6243825;23;20075;-79
2022/05/09 10:40:59;;;;;;;5.65;2.25;;;;;;;;;;6244020;23;20008;-80
2022/05/09 10:43:33;;;;;;;4.50;2.03;;;;;;;;;;6244031;23;20078;-80
2022/05/09 10:46:04;;;;;;;6.13;2.67;;;;;;;;;;6217017;23;20004;-81
2022/05/09 10:48:59;;;;;;;3.08;1.95;;;;;;;;;;6243430;23;20020;-80
2022/05/09 10:51:43;;;;;;;9.52;3.03;;;;;;;;;;6239728;23;20024;-79
2022/05/09 10:54:28;;;;;;;8.82;3.33;;;;;;;;;;6244749;23;20012;-79
2022/05/09 10:56:57;;;;;;;6.13;2.40;;;;;;;;;;6244317;23;20012;-78
2022/05/09 10:59:26;;;;;;;6.57;2.35;;;;;;;;;;6244526;23;20034;-80
2022/05/09 11:02:00;;;;;;;5.55;2.72;;;;;;;;;;6243592;23;20008;-79
2022/05/09 11:04:26;;;;;;;3.97;1.90;;;;;;;;;;6244341;23;20080;-79
2022/05/09 11:07:11;;;;;;;7.88;2.72;;;;;;;;;;6243811;23;20012;-79
2022/05/09 11:09:56;;;;;;;4.95;2.22;;;;;;;;;;6243720;23;20053;-80
2022/05/09 11:12:22;;;;;;;6.10;2.20;;;;;;;;;;6243616;23;20004;-79
2022/05/09 11:15:14;;;;;;;2.92;1.63;;;;;;;;;;6243909;23;20004;-79
2022/05/09 11:17:56;;;;;;;5.72;2.50;;;;;;;;;;6194707;23;20749;-79
2022/05/09 11:20:31;;;;;;;3.28;2.10;;;;;;;;;;6243774;23;20011;-79
2022/05/09 11:23:00;;;;;;;4.70;2.03;;;;;;;;;;6243491;23;20392;-79
2022/05/09 11:25:32;;;;;;;4.05;1.52;;;;;;;;;;6243462;23;20369;-78
2022/05/09 11:27:58;;;;;;;5.82;1.77;;;;;;;;;;6244124;23;20036;-78
2022/05/09 11:30:43;;;;;;;11.73;6.78;;;;;;;;;;6243662;23;20007;-81
2022/05/09 11:33:32;;;;;;;18.00;10.52;;;;;;;;;;6243951;23;20000;-79
2022/05/09 11:36:25;;;;;;;5.97;2.83;;;;;;;;;;6243401;23;20036;-80
2022/05/09 11:38:51;;;;;;;3.75;1.83;;;;;;;;;;6243227;23;20000;-79
2022/05/09 11:41:17;;;;;;;3.45;1.65;;;;;;;;;;6244685;23;20004;-78
2022/05/09 11:43:58;;;;;;;13.73;5.35;;;;;;;;;;6244639;23;20008;-79
2022/05/09 11:46:42;;;;;;;4.90;2.20;;;;;;;;;;6245014;23;20000;-78
2022/05/09 11:49:15;;;;;;;1.98;1.27;;;;;;;;;;6245047;23;20004;-78
2022/05/09 11:52:01;;;;;;;4.07;1.70;;;;;;;;;;6242250;23;20000;-78
2022/05/09 11:54:47;;;;;;;6.82;2.10;;;;;;;;;;6244781;23;20018;-79
2022/05/09 11:57:29;;;;;;;12.50;2.95;;;;;;;;;;6245318;23;20018;-80
2022/05/09 11:59:59;;;;;;;13.13;4.50;;;;;;;;;;6244664;23;20111;-81
2022/05/09 12:02:44;;;;;;;7.45;2.20;;;;;;;;;;6244642;23;20011;-81
2022/05/09 12:05:31;;;;;;;8.82;2.78;;;;;;;;;;6244852;23;20000;-80
2022/05/09 12:08:05;;;;;;;6.38;2.17;;;;;;;;;;6245109;23;20408;-80
2022/05/09 12:10:31;;;;;;;;;;;;;;;;;;6245501;23;20008;-75
2022/05/09 12:13:04;;;;;;;3.80;2.30;;;;;;;;;;6216635;23;19935;-80
2022/05/09 12:15:30;;;;;;;15.27;4.85;;;;;;;;;;6245031;23;20010;-82
2022/05/09 12:17:57;;;;;;;12.85;2.47;;;;;;;;;;6244437;23;20432;-81
2022/05/09 12:20:26;;;;;;;5.78;2.03;;;;;;;;;;6244938;23;20083;-79
2022/05/09 12:22:53;;;;;;;5.15;2.03;;;;;;;;;;6242233;23;20008;-80
2022/05/09 12:25:36;;;;;;;3.97;1.77;;;;;;;;;;6245207;23;20327;-79
2022/05/09 12:28:03;;;;;;;3.90;2.00;;;;;;;;;;6244559;23;20381;-79
2022/05/09 12:30:48;;;;;;;8.18;1.83;;;;;;;;;;6244939;23;20431;-78
2022/05/09 12:33:19;;;;;;;3.80;1.73;;;;;;;;;;6244814;23;20467;-81
2022/05/09 12:35:46;;;;;;;6.07;2.60;;;;;;;;;;6244567;23;20004;-81
2022/05/09 12:38:13;;;;;;;6.68;2.22;;;;;;;;;;6244145;23;20079;-78
2022/05/09 12:40:39;;;;;;;4.60;2.10;;;;;;;;;;6244425;23;20084;-78
2022/05/09 12:43:07;;;;;;;6.03;3.35;;;;;;;;;;6244195;23;20055;-84
2022/05/09 12:45:33;;;;;;;6.70;3.25;;;;;;;;;;6244587;23;19996;-81
2022/05/09 12:48:01;;;;;;;4.93;1.92;;;;;;;;;;6244130;23;20008;-83
2022/05/09 12:50:29;;;;;;;3.58;1.65;;;;;;;;;;6245074;23;20001;-84
2022/05/09 12:52:58;;;;;;;5.85;2.05;;;;;;;;;;6244000;23;20062;-83
2022/05/09 12:58:30;;;;;;;10.60;2.70;;;;;;;;;;6245098;23;20085;-84
2022/05/09 13:01:03;;;;;;;7.57;2.17;;;;;;;;;;6244259;23;20050;-83
2022/05/09 13:03:41;;;;;;;2.70;1.80;;;;;;;;;;6244500;23;20001;-75
2022/05/09 13:06:26;;;;;;;5.00;1.30;;;;;;;;;;6244530;23;20071;-85
2022/05/09 13:08:52;;;;;;;6.85;1.60;;;;;;;;;;6244306;23;20070;-83
2022/05/09 13:11:32;;;;;;;5.70;1.88;;;;;;;;;;6244912;23;20004;-84
2022/05/09 13:13:59;;;;;;;4.55;2.38;;;;;;;;;;6245034;23;20008;-83
2022/05/09 13:16:46;;;;;;;3.63;1.55;;;;;;;;;;6244541;23;20011;-85
2022/05/09 13:19:19;;;;;;;6.45;2.47;;;;;;;;;;6244566;23;20007;-84
2022/05/09 13:21:47;;;;;;;4.20;2.08;;;;;;;;;;6244271;23;20325;-82
2022/05/09 13:24:20;;;;;;;6.30;1.52;;;;;;;;;;6244392;23;20019;-81
2022/05/09 13:26:48;;;;;;;3.35;1.48;;;;;;;;;;6244048;23;20055;-81
2022/05/09 13:29:23;;;;;;;7.82;3.58;;;;;;;;;;6243828;23;20425;-80
2022/05/09 13:31:51;;;;;;;4.57;2.63;;;;;;;;;;6244001;23;20395;-82
2022/05/09 13:34:21;;;;;;;4.82;1.60;;;;;;;;;;6243920;23;20020;-81
2022/05/09 13:36:47;;;;;;;6.15;1.90;;;;;;;;;;6218362;23;19996;-81
2022/05/09 13:39:25;;;;;;;3.35;1.60;;;;;;;;;;6245010;23;20498;-80
2022/05/09 13:41:51;;;;;;;4.47;1.65;;;;;;;;;;6244761;23;20021;-80
2022/05/09 13:44:21;;;;;;;4.28;1.95;;;;;;;;;;6244633;23;20004;-80
2022/05/09 13:46:47;;;;;;;5.72;4.30;;;;;;;;;;6245077;23;20000;-81
2022/05/09 13:49:15;;;;;;;6.65;1.77;;;;;;;;;;6244952;23;20000;-80
2022/05/09 13:52:04;;;;;;;2.85;2.20;;;;;;;;;;6244903;23;20007;-80
2022/05/09 13:54:30;;;;;;;4.53;1.65;;;;;;;;;;6243662;23;20008;-81
2022/05/09 13:57:12;;;;;;;9.13;2.22;;;;;;;;;;6244691;23;20000;-82
2022/05/09 13:59:39;;;;;;;4.18;1.75;;;;;;;;;;6243979;23;20014;-81
2022/05/09 14:02:05;;;;;;;5.53;1.70;;;;;;;;;;6244608;23;20040;-80
2022/05/09 14:04:36;;;;;;;4.03;1.90;;;;;;;;;;6244206;23;20032;-82
2022/05/09 14:07:37;;;;;;;2.60;1.55;;;;;;;;;;6243772;23;19996;-80
2022/05/09 14:09:50;;;;;;;5.50;2.22;;;;;;;;;;6243929;23;20285;-81
2022/05/09 14:12:18;;;;;;;4.28;1.75;;;;;;;;;;6245284;23;20008;-81
2022/05/09 14:14:51;;;;;;;7.03;1.60;;;;;;;;;;6243021;23;20011;-81
2022/05/09 14:17:21;;;;;;;3.30;1.55;;;;;;;;;;6216587;23;20000;-81
2022/05/09 14:19:50;;;;;;;3.00;1.42;;;;;;;;;;6244206;23;20593;-80
2022/05/09 14:22:19;;;;;;;7.82;2.38;;;;;;;;;;6242645;23;20066;-81
2022/05/09 14:30:20;;;;;;;7.65;2.58;;;;;;;;;;6245561;23;20043;-82
2022/05/09 14:32:46;;;;;;;6.00;2.38;;;;;;;;;;6245699;23;20004;-81
2022/05/09 14:35:32;;;;;;;4.05;2.17;;;;;;;;;;6245586;23;20036;-82
2022/05/09 14:37:58;;;;;;;3.13;1.38;;;;;;;;;;6245763;23;20027;-82
2022/05/09 14:40:29;;;;;;;4.72;1.48;;;;;;;;;;6245928;23;20075;-82
2022/05/09 14:46:01;;;;;;;6.47;1.92;;;;;;;;;;6245188;23;20031;-82
2022/05/09 14:48:32;;;;;;;6.82;1.95;;;;;;;;;;6245191;23;20018;-82
2022/05/09 14:50:59;;;;;;;6.47;2.03;;;;;;;;;;6245517;23;20000;-82
2022/05/09 14:53:50;;;;;;;4.30;1.80;;;;;;;;;;6244261;23;20050;-81
2022/05/09 14:59:14;;;;;;;9.05;2.05;;;;;;;;;;6245958;23;20019;-82
2022/05/09 15:01:49;;;;;;;13.18;4.00;;;;;;;;;;6245506;23;20000;-81
2022/05/09 15:04:15;;;;;;;3.70;1.92;;;;;;;;;;6244917;23;20023;-81
2022/05/09 15:06:41;;;;;;;10.20;2.17;;;;;;;;;;6245488;23;20000;-80
2022/05/09 15:09:08;;;;;;;6.70;2.03;;;;;;;;;;6245515;23;20004;-80
2022/05/09 15:11:37;;;;;;;3.90;2.30;;;;;;;;;;6245390;23;20008;-80
2022/05/09 15:14:04;;;;;;;3.25;1.50;;;;;;;;;;6245364;23;20440;-80
2022/05/09 15:16:32;;;;;;;5.72;1.67;;;;;;;;;;6245304;23;20051;-80
2022/05/09 15:18:59;;;;;;;5.65;1.35;;;;;;;;;;6218537;23;20008;-80
2022/05/09 15:21:27;;;;;;;6.80;1.58;;;;;;;;;;6245952;23;20000;-81